Main page
Satellite images 15-day forecastsClimateMarine weather Cyclones Lightning AirportsFAQ Newsletter About
Weather : Europe Africa North America South America Asia Australia-Oceania Others
Languages Contact

London-Southend, England

latitude: 51-34N, longitude: 000-42E, elevation: 15 m


METAR: EGMC 161320Z 10008KT 7000 FEW023 22/15 Q1015
short-TAF: EGMC 161103Z 1612/1621 10008KT 6000 FEW015 BECMG 1612/1615 9999 BECMG 1618/1621 7000 BKN008 PROB40 1619/1621 3000 BR BKN002
long-TAF: out of date (734 hours)

Time: 14:26 (13:26 UTC)

Current weather observation

The report was made 6 minutes ago, at 13:20 UTC  
Wind 08 kt from the East
Temperature 22°C
Humidity 65%
Pressure 1015 hPa
Visibility 7000 m
Few clouds at a height of 2300 ft

Change units

Forecast

The report was made 2 hours and 11 minutes ago, at 11:15 UTC  
Forecast valid from 16 at 12 UTC to 16 at 21 UTC
Wind 08 kt from the East
Visibility 6000 m
Few clouds at a height of 1500 ft
Becoming
from 16 at 12 UTC to 16 at 15 UTC
Visibility 10 km or more
Becoming
from 16 at 18 UTC to 16 at 21 UTC
Visibility 7000 m
Broken clouds at a height of 800 ft
Probability 40%
from 16 at 19 UTC to 16 at 21 UTC
Visibility 3000 m
Broken clouds at a height of 200 ft
mist
The information on this site is subject to a disclaimer
Weather : Europe Africa North America South America Asia Australia-Oceania Others
Satellite images 15-day forecastsClimateMarine weather Cyclones Lightning AirportsFAQ Languages Contact Newsletter About